Time;durP1;ratioP1;P1;durP2;ratioP2;P2;SDS_P1;SDS_P2;PMS_P1;PMS_P2;Temp;Humidity;BMP_temperature;BMP_pressure;BME280_temperature;BME280_humidity;BME280_pressure;Samples;Min_cycle;Max_cycle;Signal;HPM_P1;HPM_P2
2022/12/23 00:01:12;;;;;;;9.90;2.42;;;;;;;14.78;87.29;98628.47;5093734;28;20024;-47
2022/12/23 00:03:38;;;;;;;9.60;2.65;;;;;;;14.78;86.88;98629.28;5093699;28;20111;-46
2022/12/23 00:06:11;;;;;;;7.28;1.88;;;;;;;14.75;85.99;98613.91;5093550;28;20098;-46
2022/12/23 00:08:37;;;;;;;7.25;1.77;;;;;;;14.70;85.92;98608.47;5092304;28;20046;-46
2022/12/23 00:11:05;;;;;;;9.23;2.50;;;;;;;14.62;85.34;98605.38;5092951;28;20077;-46
2022/12/23 00:16:16;;;;;;;8.00;2.53;;;;;;;14.61;86.32;98601.13;5093670;28;20032;-46
2022/12/23 00:18:42;;;;;;;4.75;1.80;;;;;;;14.68;86.00;98601.84;5092026;28;20032;-46
2022/12/23 00:21:11;;;;;;;8.60;2.53;;;;;;;14.73;85.23;98600.13;5093291;28;20478;-46
2022/12/23 00:23:39;;;;;;;8.30;2.25;;;;;;;14.92;85.72;98594.72;5091635;28;20113;-46
2022/12/23 00:26:06;;;;;;;15.38;2.83;;;;;;;14.92;84.64;98584.16;5093370;28;20012;-46
2022/12/23 00:28:32;;;;;;;6.60;2.13;;;;;;;14.93;84.02;98580.44;5093154;28;20411;-46
2022/12/23 00:31:03;;;;;;;7.07;1.83;;;;;;;14.88;83.26;98593.56;5093035;28;20043;-46
2022/12/23 00:33:31;;;;;;;8.50;1.88;;;;;;;14.86;84.12;98583.22;5092972;28;20490;-46
2022/12/23 00:35:57;;;;;;;7.05;2.20;;;;;;;14.89;82.20;98579.31;5093014;28;20025;-46
2022/12/23 00:43:57;;;;;;;8.57;2.67;;;;;;;14.80;82.58;98586.00;5093158;28;20410;-46
2022/12/23 00:46:23;;;;;;;5.57;1.42;;;;;;;14.84;79.87;98592.41;5091444;28;20032;-46
2022/12/23 00:51:33;;;;;;;6.57;1.52;;;;;;;14.94;77.26;98567.00;5092763;28;20115;-46
2022/12/23 00:53:58;;;;;;;8.52;1.85;;;;;;;14.86;77.32;98569.22;5092626;28;20468;-46
2022/12/23 00:56:24;;;;;;;7.85;2.50;;;;;;;14.86;78.33;98567.38;5092556;28;20020;-46
2022/12/23 00:58:50;;;;;;;9.77;2.00;;;;;;;14.84;79.20;98582.66;5092585;28;20032;-46
2022/12/23 01:06:43;;;;;;;7.55;2.42;;;;;;;14.53;86.00;98578.50;5092488;28;20094;-46
2022/12/23 01:09:09;;;;;;;5.90;2.20;;;;;;;14.51;84.88;98583.19;5091145;28;20024;-46
2022/12/23 01:11:34;;;;;;;8.98;2.05;;;;;;;14.45;84.56;98590.19;5092316;28;20034;-46
2022/12/23 01:14:00;;;;;;;5.47;2.00;;;;;;;14.43;85.12;98599.34;5090973;28;20038;-46
2022/12/23 01:16:25;;;;;;;5.97;2.08;;;;;;;14.46;85.28;98604.97;5092341;28;20099;-46
2022/12/23 01:18:51;;;;;;;6.20;1.67;;;;;;;14.52;84.97;98606.72;5090940;28;20036;-46
2022/12/23 01:21:17;;;;;;;4.28;1.45;;;;;;;14.53;81.23;98616.25;5092247;28;20018;-46
2022/12/23 01:23:42;;;;;;;5.03;1.52;;;;;;;14.47;81.42;98619.81;5089826;28;20485;-47
2022/12/23 01:26:08;;;;;;;5.93;1.75;;;;;;;14.41;82.14;98623.34;5090803;28;20016;-45
2022/12/23 01:28:35;;;;;;;12.23;2.35;;;;;;;14.25;83.64;98630.09;5092114;28;20103;-46
2022/12/23 01:31:03;;;;;;;10.98;2.13;;;;;;;14.10;85.67;98625.19;5092332;28;20103;-46
2022/12/23 01:33:32;;;;;;;8.68;2.28;;;;;;;13.96;85.98;98618.50;5091995;28;20382;-46
2022/12/23 01:36:03;;;;;;;9.02;1.90;;;;;;;13.91;85.11;98618.38;5092033;28;20035;-46
2022/12/23 01:38:29;;;;;;;7.40;1.77;;;;;;;13.85;84.63;98630.63;5091955;28;20074;-46
2022/12/23 01:40:55;;;;;;;12.30;3.08;;;;;;;13.85;85.65;98625.34;5090638;28;20020;-46
2022/12/23 01:43:21;;;;;;;6.38;1.90;;;;;;;13.90;83.99;98632.59;5091933;28;20020;-46
2022/12/23 01:45:46;;;;;;;8.45;2.53;;;;;;;13.90;85.16;98632.59;5091889;28;20092;-46
2022/12/23 01:48:21;;;;;;;9.30;2.22;;;;;;;13.88;85.78;98640.72;5090573;28;20020;-46
2022/12/23 01:50:52;;;;;;;7.05;1.83;;;;;;;13.85;85.67;98637.75;5091904;28;20020;-47
2022/12/23 01:53:28;;;;;;;8.75;2.28;;;;;;;13.89;84.83;98633.63;5091825;28;20032;-47
2022/12/23 01:56:02;;;;;;;8.65;1.85;;;;;;;13.94;86.12;98624.03;5090520;28;20129;-46
2022/12/23 01:58:49;;;;;;;7.68;1.85;;;;;;;14.03;85.25;98618.44;5090481;28;20414;-46
2022/12/23 02:04:03;;;;;;;5.20;1.75;;;;;;;13.96;85.80;98619.34;5091804;28;20456;-46
2022/12/23 02:09:37;;;;;;;7.45;2.75;;;;;;;13.93;85.53;98622.41;5091986;28;20054;-46
2022/12/23 02:12:41;;;;;;;5.13;1.95;;;;;;;14.03;85.57;98626.34;5091665;28;20047;-46
2022/12/23 02:18:18;;;;;;;6.82;1.58;;;;;;;13.91;85.64;98623.66;5091918;28;20062;-46
2022/12/23 02:21:10;;;;;;;11.43;7.18;;;;;;;13.91;85.61;98635.00;5091815;28;20081;-46
2022/12/23 02:23:53;;;;;;;11.55;5.53;;;;;;;13.96;85.18;98623.78;5091328;28;20413;-47
2022/12/23 02:26:47;;;;;;;12.95;7.05;;;;;;;14.06;86.21;98636.44;5091544;28;20027;-46
2022/12/23 02:29:39;;;;;;;10.18;4.07;;;;;;;13.85;87.16;98630.63;5091491;28;20028;-45
2022/12/23 02:32:31;;;;;;;15.35;3.08;;;;;;;13.54;89.31;98627.16;5091469;28;20024;-45
2022/12/23 02:35:25;;;;;;;9.68;3.03;;;;;;;13.50;91.52;98626.00;5092748;28;20032;-45
2022/12/23 02:38:12;;;;;;;10.15;2.35;;;;;;;13.79;94.46;98620.97;5094070;28;20024;-45
2022/12/23 02:40:50;;;;;;;9.95;2.30;;;;;;;13.85;94.60;98630.63;5095500;28;20055;-45
2022/12/23 02:43:36;;;;;;;7.80;2.05;;;;;;;13.65;94.26;98635.34;5095188;28;20413;-45
2022/12/23 02:46:12;;;;;;;9.15;1.98;;;;;;;13.60;95.30;98638.63;5093859;28;20047;-45
2022/12/23 02:49:02;;;;;;;14.35;2.55;;;;;;;13.57;96.26;98631.97;5093822;28;20443;-46
2022/12/23 02:51:35;;;;;;;9.15;5.03;;;;;;;13.75;96.95;98615.31;5093749;28;20479;-46
2022/12/23 02:54:05;;;;;;;12.43;3.45;;;;;;;13.80;96.66;98617.28;5095298;28;20042;-45
2022/12/23 02:56:34;;;;;;;9.27;2.58;;;;;;;13.92;94.75;98615.53;5094924;28;20115;-46
2022/12/23 02:59:09;;;;;;;6.55;3.25;;;;;;;13.95;94.19;98615.06;5094909;28;20528;-46
2022/12/23 03:01:35;;;;;;;5.50;1.58;;;;;;;13.96;92.33;98624.59;5094953;28;20032;-46
2022/12/23 03:04:01;;;;;;;7.70;2.08;;;;;;;13.88;92.78;98624.88;5094810;28;20074;-46
2022/12/23 03:06:39;;;;;;;10.60;2.25;;;;;;;13.92;93.45;98620.81;5094713;28;20020;-46
2022/12/23 03:09:06;;;;;;;7.57;1.63;;;;;;;14.05;91.68;98638.28;5094804;28;20035;-46
2022/12/23 03:11:55;;;;;;;6.93;2.22;;;;;;;13.94;91.04;98628.47;5094632;28;20028;-46
2022/12/23 03:14:40;;;;;;;5.30;1.77;;;;;;;13.91;91.28;98616.53;5094664;28;20035;-46
2022/12/23 03:17:30;;;;;;;8.30;1.73;;;;;;;14.28;92.37;98620.91;5094605;28;20115;-46
2022/12/23 03:20:22;;;;;;;10.32;2.20;;;;;;;14.37;91.90;98601.88;5093361;28;20036;-46
2022/12/23 03:23:22;;;;;;;6.05;1.65;;;;;;;14.54;89.83;98599.38;5094192;28;20063;-46
2022/12/23 03:25:58;;;;;;;6.13;1.90;;;;;;;14.39;90.70;98589.25;5093139;28;20032;-46
2022/12/23 03:28:50;;;;;;;5.75;2.00;;;;;;;14.37;90.97;98593.16;5094355;28;20584;-46
2022/12/23 03:31:21;;;;;;;18.80;2.85;;;;;;;14.51;92.64;98591.13;5083768;28;20089;-46
2022/12/23 03:33:53;;;;;;;7.50;1.58;;;;;;;14.61;90.34;98587.91;5092916;28;20028;-46
2022/12/23 03:36:25;;;;;;;5.65;1.70;;;;;;;14.43;88.56;98594.06;5094191;28;20028;-46
2022/12/23 03:38:53;;;;;;;9.38;1.80;;;;;;;14.35;88.46;98592.59;5092801;28;20024;-46
2022/12/23 03:41:35;;;;;;;8.20;1.70;;;;;;;14.26;89.56;98586.81;5092749;28;20032;-46
2022/12/23 03:44:16;;;;;;;5.20;1.55;;;;;;;14.37;90.78;98603.72;5094156;28;20024;-47
2022/12/23 03:47:14;;;;;;;3.78;1.30;;;;;;;14.36;91.09;98602.91;5093212;28;20054;-46
2022/12/23 03:49:54;;;;;;;6.55;1.48;;;;;;;14.32;91.88;98593.03;5060448;28;20078;-46
2022/12/23 03:52:52;;;;;;;5.18;1.25;;;;;;;14.39;91.53;98597.19;5093851;28;20474;-46
2022/12/23 03:55:24;;;;;;;8.00;1.63;;;;;;;14.30;91.90;98601.16;5064738;28;20028;-46
2022/12/23 03:58:10;;;;;;;6.93;1.77;;;;;;;14.14;92.74;98591.25;5092521;28;20059;-46
2022/12/23 04:00:44;;;;;;;13.57;2.45;;;;;;;14.08;94.59;98585.03;5093739;28;20026;-46
2022/12/23 04:03:23;;;;;;;8.20;1.80;;;;;;;14.05;95.43;98580.22;5092409;28;20043;-45
2022/12/23 04:05:56;;;;;;;6.32;1.50;;;;;;;13.98;95.52;98577.69;5093677;28;20036;-45
2022/12/23 04:08:32;;;;;;;6.95;1.45;;;;;;;13.85;95.84;98579.72;5093829;28;20024;-44
2022/12/23 04:10:59;;;;;;;8.65;1.65;;;;;;;13.79;96.14;98573.50;5092243;28;20402;-45
2022/12/23 04:13:29;;;;;;;4.25;1.70;;;;;;;13.69;95.29;98576.66;5075200;28;20032;-45
2022/12/23 04:15:58;;;;;;;6.43;1.35;;;;;;;13.79;96.55;98576.13;5092191;28;20476;-45
2022/12/23 04:18:24;;;;;;;6.53;1.63;;;;;;;13.86;96.06;98587.38;5092164;28;20024;-45
2022/12/23 04:20:49;;;;;;;3.65;1.50;;;;;;;13.93;96.30;98595.22;5093608;28;20078;-46
2022/12/23 04:23:15;;;;;;;4.03;1.30;;;;;;;13.94;96.59;98599.44;5092968;28;20447;-46
2022/12/23 04:25:41;;;;;;;4.35;1.00;;;;;;;13.91;96.85;98584.09;5091989;28;20140;-45
2022/12/23 04:28:07;;;;;;;5.35;1.25;;;;;;;13.84;96.82;98592.06;5091803;28;20032;-46
2022/12/23 04:30:32;;;;;;;2.28;1.17;;;;;;;13.88;97.80;98600.34;5093135;28;20024;-46
2022/12/23 04:32:58;;;;;;;5.32;1.75;;;;;;;14.01;99.02;98597.53;5093050;28;20111;-46
2022/12/23 04:35:23;;;;;;;3.67;1.33;;;;;;;14.12;98.46;98602.03;5092984;28;20020;-46
2022/12/23 04:37:49;;;;;;;5.65;1.20;;;;;;;14.31;98.91;98588.78;5074887;28;20028;-46
2022/12/23 04:40:15;;;;;;;4.75;1.40;;;;;;;14.41;98.28;98593.50;5091630;28;20031;-46
2022/12/23 04:42:40;;;;;;;7.45;1.25;;;;;;;14.45;98.41;98590.19;5092965;28;20394;-46
2022/12/23 04:45:06;;;;;;;5.75;1.42;;;;;;;14.52;98.27;98603.28;5093123;28;20061;-46
2022/12/23 04:47:32;;;;;;;5.53;1.50;;;;;;;14.61;97.46;98603.75;5093147;28;20394;-47
2022/12/23 04:49:57;;;;;;;8.40;1.88;;;;;;;14.89;98.39;98592.53;5092801;28;20030;-47
2022/12/23 04:52:23;;;;;;;5.00;1.20;;;;;;;15.08;97.97;98601.13;5092659;28;20028;-46
2022/12/23 04:54:49;;;;;;;6.57;1.20;;;;;;;15.28;97.70;98593.63;5074590;28;20031;-46
2022/12/23 04:57:15;;;;;;;4.03;0.80;;;;;;;15.27;95.49;98597.31;5092618;28;20012;-46
2022/12/23 04:59:41;;;;;;;5.65;1.00;;;;;;;15.16;94.54;98606.88;5092621;28;20048;-46
2022/12/23 05:02:06;;;;;;;9.10;2.00;;;;;;;15.10;95.79;98602.50;5092525;28;20047;-46
2022/12/23 05:04:32;;;;;;;6.57;1.70;;;;;;;14.96;95.07;98601.94;5092594;28;20032;-47
2022/12/23 05:06:58;;;;;;;4.78;1.33;;;;;;;14.73;95.29;98602.75;5091187;28;20497;-47
2022/12/23 05:09:23;;;;;;;5.93;1.30;;;;;;;14.60;95.69;98596.88;5091127;28;20411;-47
2022/12/23 05:11:49;;;;;;;4.55;1.35;;;;;;;14.67;95.54;98602.84;5091106;28;20051;-47
2022/12/23 05:14:15;;;;;;;27.88;24.92;;;;;;;14.69;95.47;98592.84;5092272;28;20478;-47
2022/12/23 05:16:40;;;;;;;52.15;47.30;;;;;;;14.72;93.99;98593.22;5092343;28;20028;-47
2022/12/23 05:19:06;;;;;;;60.00;54.55;;;;;;;14.73;93.48;98589.56;5090983;28;20089;-47
2022/12/23 05:21:32;;;;;;;77.32;70.47;;;;;;;14.83;92.45;98596.91;5092224;28;20028;-47
2022/12/23 05:23:57;;;;;;;107.57;98.45;;;;;;;14.83;89.33;98596.09;5091964;28;20097;-47
2022/12/23 05:26:23;;;;;;;233.13;213.13;;;;;;;14.85;90.74;98591.38;5090798;28;20497;-47
2022/12/23 05:28:49;;;;;;;20.52;18.35;;;;;;;15.10;92.30;98596.44;5090840;28;20024;-47
2022/12/23 05:31:16;;;;;;;49.97;44.50;;;;;;;15.11;91.27;98588.28;5073911;28;20532;-47
2022/12/23 05:33:42;;;;;;;85.47;76.78;;;;;;;15.06;91.26;98590.00;5091965;28;20028;-47
2022/12/23 05:36:08;;;;;;;61.83;55.17;;;;;;;14.83;91.13;98580.22;5092001;28;20031;-46
2022/12/23 05:38:34;;;;;;;30.95;27.67;;;;;;;14.74;92.64;98601.72;5092008;28;20032;-47
2022/12/23 05:41:01;;;;;;;29.85;25.73;;;;;;;14.71;92.42;98601.38;5091977;28;20080;-46
2022/12/23 05:43:26;;;;;;;47.53;42.75;;;;;;;14.70;92.29;98592.63;5090671;28;20074;-47
2022/12/23 05:45:52;;;;;;;35.97;32.25;;;;;;;14.86;92.45;98585.06;5091904;28;20502;-46
2022/12/23 05:48:18;;;;;;;51.72;45.97;;;;;;;15.06;91.52;98596.06;5091868;28;20486;-46
2022/12/23 05:50:44;;;;;;;21.85;6.88;;;;;;;15.30;89.72;98588.91;5090574;28;20032;-46
2022/12/23 05:53:09;;;;;;;7.10;5.20;;;;;;;15.37;89.61;98588.78;5091755;28;20482;-46
2022/12/23 05:55:35;;;;;;;15.25;12.20;;;;;;;15.35;90.43;98596.13;5090580;28;20024;-46
2022/12/23 05:58:01;;;;;;;9.77;3.75;;;;;;;15.49;90.32;98605.44;5090492;28;20498;-46
2022/12/23 06:00:26;;;;;;;10.55;3.60;;;;;;;15.43;89.21;98609.00;5092037;28;20024;-46
2022/12/23 06:02:55;;;;;;;33.35;29.25;;;;;;;15.43;89.19;98609.00;5090720;28;20028;-46
2022/12/23 06:05:21;;;;;;;8.70;6.93;;;;;;;15.69;87.21;98606.88;5091714;28;20016;-46
2022/12/23 06:07:47;;;;;;;21.00;16.33;;;;;;;15.60;84.45;98614.38;5090435;28;20020;-46
2022/12/23 06:10:12;;;;;;;7.95;5.53;;;;;;;15.61;85.56;98623.09;5093492;28;20489;-46
2022/12/23 06:12:38;;;;;;;22.73;12.63;;;;;;;15.57;86.88;98620.94;5094414;28;20028;-46
2022/12/23 06:15:04;;;;;;;5.97;2.58;;;;;;;15.91;86.54;98622.91;5094389;28;20024;-46
2022/12/23 06:17:30;;;;;;;26.60;21.35;;;;;;;15.96;84.53;98630.97;5094374;28;20060;-46
2022/12/23 06:19:56;;;;;;;10.82;4.22;;;;;;;16.10;86.44;98628.84;5094351;28;20113;-46
2022/12/23 06:22:22;;;;;;;27.30;24.08;;;;;;;16.03;85.78;98626.31;5095639;28;20039;-46
2022/12/23 06:24:48;;;;;;;27.95;24.92;;;;;;;16.01;86.82;98617.00;5095344;28;20052;-46
2022/12/23 06:27:14;;;;;;;8.95;5.95;;;;;;;16.14;87.47;98620.19;5094159;28;20574;-46
2022/12/23 06:29:40;;;;;;;10.60;9.15;;;;;;;16.11;85.70;98604.75;5094195;28;20059;-46
2022/12/23 06:32:06;;;;;;;8.63;5.80;;;;;;;15.94;83.48;98607.38;5095339;28;20020;-46
2022/12/23 06:34:32;;;;;;;12.90;8.05;;;;;;;15.77;85.55;98617.09;5094068;28;20063;-46
2022/12/23 06:36:57;;;;;;;31.25;25.50;;;;;;;15.78;87.34;98621.38;5095544;28;20456;-46
2022/12/23 06:39:23;;;;;;;23.90;16.55;;;;;;;16.02;87.54;98622.09;5093996;28;20570;-46
2022/12/23 06:41:49;;;;;;;9.23;6.55;;;;;;;16.52;87.45;98625.81;5095300;28;20020;-46
2022/12/23 06:44:14;;;;;;;11.60;8.32;;;;;;;16.91;86.03;98626.72;5095215;28;20112;-46
2022/12/23 06:46:40;;;;;;;16.13;11.90;;;;;;;16.98;82.93;98626.56;5095242;28;20024;-46
2022/12/23 06:49:06;;;;;;;14.73;12.60;;;;;;;16.93;82.37;98634.44;5095119;28;20038;-46
2022/12/23 06:51:32;;;;;;;6.85;5.10;;;;;;;16.93;82.92;98629.94;5095297;28;20024;-46
2022/12/23 06:53:59;;;;;;;9.60;8.00;;;;;;;16.82;81.85;98624.72;5093650;28;20551;-46
2022/12/23 06:56:25;;;;;;;20.83;17.23;;;;;;;16.60;79.50;98629.94;5094959;28;20390;-46
2022/12/23 06:58:51;;;;;;;9.23;6.18;;;;;;;16.39;77.56;98629.59;5094911;28;20021;-46
2022/12/23 07:01:18;;;;;;;11.48;9.88;;;;;;;16.23;78.63;98625.88;5094844;28;20439;-46
2022/12/23 07:03:44;;;;;;;9.65;6.90;;;;;;;16.11;79.89;98625.94;5093713;28;20054;-46
2022/12/23 07:06:09;;;;;;;11.80;7.85;;;;;;;16.06;81.40;98639.09;5094739;28;20023;-46
2022/12/23 07:08:35;;;;;;;12.00;9.48;;;;;;;15.97;81.49;98643.94;5094799;28;20119;-46
2022/12/23 07:11:02;;;;;;;21.02;17.02;;;;;;;15.95;81.33;98640.72;5093350;28;20032;-46
2022/12/23 07:13:28;;;;;;;66.07;59.60;;;;;;;16.02;82.95;98645.06;5093246;28;20406;-46
2022/12/23 07:15:54;;;;;;;37.67;32.90;;;;;;;16.09;83.18;98645.75;5093226;28;20073;-46
2022/12/23 07:18:21;;;;;;;5.50;3.75;;;;;;;16.08;82.79;98641.50;5094573;28;20028;-46
2022/12/23 07:20:47;;;;;;;8.88;5.63;;;;;;;15.97;80.31;98654.53;5091912;28;20024;-46
2022/12/23 07:23:13;;;;;;;8.63;6.60;;;;;;;15.91;80.48;98662.63;5092820;28;20040;-46
2022/12/23 07:25:39;;;;;;;14.85;10.80;;;;;;;15.85;80.26;98666.22;5093160;28;20032;-46
2022/12/23 07:28:04;;;;;;;19.92;14.85;;;;;;;15.91;82.16;98666.06;5094409;28;20447;-46
2022/12/23 07:30:30;;;;;;;18.30;12.27;;;;;;;15.92;80.98;98662.41;5094249;28;20024;-46
2022/12/23 07:32:55;;;;;;;12.70;9.57;;;;;;;15.91;80.78;98655.47;5094255;28;20024;-46
2022/12/23 07:35:21;;;;;;;14.38;6.70;;;;;;;15.89;81.48;98662.06;5092891;28;20061;-46
2022/12/23 07:37:54;;;;;;;5.53;1.80;;;;;;;15.84;80.40;98659.31;5094209;28;20107;-46
2022/12/23 07:40:24;;;;;;;5.97;2.22;;;;;;;15.97;80.56;98659.81;5092891;28;20040;-46
2022/12/23 07:42:53;;;;;;;7.68;4.60;;;;;;;15.96;78.71;98663.53;5094056;28;20536;-46
2022/12/23 07:45:19;;;;;;;13.88;10.85;;;;;;;15.94;79.19;98660.31;5094094;28;20068;-46
2022/12/23 07:47:45;;;;;;;4.43;2.95;;;;;;;16.02;77.59;98660.97;5094008;28;20020;-46
2022/12/23 07:50:11;;;;;;;11.20;6.97;;;;;;;16.05;77.82;98665.78;5092902;28;20028;-46
2022/12/23 07:52:37;;;;;;;4.25;3.63;;;;;;;16.06;78.36;98662.91;5094032;28;20028;-46
2022/12/23 07:55:04;;;;;;;12.20;8.55;;;;;;;16.08;78.34;98668.00;5092450;28;20032;-46
2022/12/23 07:57:36;;;;;;;7.85;5.95;;;;;;;16.10;76.86;98668.56;5092542;28;20044;-46
2022/12/23 08:00:06;;;;;;;6.22;4.13;;;;;;;16.18;76.57;98670.81;5093706;28;20115;-46
2022/12/23 08:02:32;;;;;;;7.05;2.30;;;;;;;16.21;76.38;98664.25;5093698;28;20036;-46
2022/12/23 08:04:57;;;;;;;6.18;2.15;;;;;;;16.23;76.21;98667.47;5093663;28;20032;-45
2022/12/23 08:07:23;;;;;;;4.18;2.05;;;;;;;16.34;77.21;98671.91;5092292;28;20024;-46
2022/12/23 08:09:48;;;;;;;5.05;2.10;;;;;;;16.42;77.36;98671.50;5093546;28;20023;-46
2022/12/23 08:12:15;;;;;;;9.57;3.90;;;;;;;16.48;75.61;98670.56;5093672;28;20024;-46
2022/12/23 08:14:40;;;;;;;10.20;4.07;;;;;;;16.54;76.51;98666.94;5093740;28;20134;-46
2022/12/23 08:17:06;;;;;;;35.10;13.77;;;;;;;16.59;75.85;98663.56;5092041;28;20126;-46
2022/12/23 08:19:31;;;;;;;45.03;17.30;;;;;;;16.67;75.95;98675.63;5109093;28;20020;-46
2022/12/23 08:21:57;;;;;;;42.53;17.52;;;;;;;16.67;72.67;98675.63;5093276;28;20028;-46
2022/12/23 08:24:23;;;;;;;72.68;39.45;;;;;;;16.65;71.08;98661.81;5093049;28;20040;-46
2022/12/23 08:26:48;;;;;;;22.33;13.05;;;;;;;16.67;70.40;98667.69;5093236;28;20056;-46
2022/12/23 08:29:14;;;;;;;28.33;19.05;;;;;;;16.71;70.44;98674.91;5091846;28;20404;-46
2022/12/23 08:31:39;;;;;;;51.60;42.08;;;;;;;16.77;70.09;98671.28;5091479;28;20028;-46
2022/12/23 08:34:05;;;;;;;50.50;45.47;;;;;;;16.85;70.89;98672.75;5091669;28;20020;-47
2022/12/23 08:36:33;;;;;;;39.08;35.05;;;;;;;16.88;69.94;98674.13;5092972;28;20051;-46
2022/12/23 08:39:02;;;;;;;15.80;14.27;;;;;;;16.90;70.05;98672.03;5093003;28;20024;-46
2022/12/23 08:41:30;;;;;;;8.27;5.38;;;;;;;16.90;68.30;98686.13;5092927;28;20031;-46
2022/12/23 08:43:56;;;;;;;7.20;2.33;;;;;;;16.96;68.53;98676.38;5091600;28;20502;-47
2022/12/23 08:46:23;;;;;;;4.85;2.33;;;;;;;16.96;67.83;98676.38;5092870;28;20039;-47
2022/12/23 08:48:49;;;;;;;9.52;3.58;;;;;;;16.96;68.53;98674.53;5091568;28;20165;-46
2022/12/23 08:51:17;;;;;;;5.80;3.60;;;;;;;17.05;68.15;98674.94;5091472;28;20046;-46
2022/12/23 08:53:43;;;;;;;7.30;3.55;;;;;;;17.24;68.51;98674.66;5092657;28;20028;-47
2022/12/23 08:56:17;;;;;;;5.40;2.38;;;;;;;17.31;66.83;98673.44;5092599;28;20030;-46
2022/12/23 08:58:45;;;;;;;7.55;3.25;;;;;;;17.34;67.31;98678.28;5091412;28;20027;-47
2022/12/23 09:01:13;;;;;;;6.38;2.90;;;;;;;17.31;65.27;98670.00;5074563;28;20035;-47
2022/12/23 09:03:39;;;;;;;14.15;5.72;;;;;;;17.23;65.65;98673.88;5092566;28;20028;-47
2022/12/23 09:06:07;;;;;;;8.80;3.30;;;;;;;17.23;66.19;98675.72;5092548;28;20034;-47
2022/12/23 09:08:33;;;;;;;11.80;5.65;;;;;;;17.28;66.56;98689.84;5091109;28;20052;-47
2022/12/23 09:11:00;;;;;;;3.85;1.67;;;;;;;17.29;63.90;98674.75;5092407;28;20024;-47
2022/12/23 09:13:26;;;;;;;7.72;2.90;;;;;;;17.17;65.52;98688.09;5092326;28;20020;-46
2022/12/23 09:15:51;;;;;;;4.30;2.78;;;;;;;17.22;64.55;98668.78;5092336;28;20032;-47
2022/12/23 09:18:17;;;;;;;4.93;1.67;;;;;;;17.14;64.13;98672.66;5092308;28;20042;-47
2022/12/23 09:20:43;;;;;;;3.22;1.98;;;;;;;17.05;65.10;98669.63;5092253;28;20035;-47
2022/12/23 09:23:08;;;;;;;7.88;1.55;;;;;;;17.07;65.18;98672.03;5091998;28;20028;-47
2022/12/23 09:25:35;;;;;;;25.13;2.78;;;;;;;17.06;64.31;98694.28;5090921;28;20035;-46
2022/12/23 09:28:02;;;;;;;26.05;3.65;;;;;;;17.00;64.79;98663.44;5092503;28;20028;-47
2022/12/23 09:30:28;;;;;;;44.75;5.28;;;;;;;16.89;64.93;98700.41;5090833;28;20458;-46
2022/12/23 09:32:53;;;;;;;14.20;2.28;;;;;;;16.87;65.18;98691.09;5091995;28;20106;-47
2022/12/23 09:35:19;;;;;;;3.42;1.02;;;;;;;16.81;65.08;98695.50;5090799;28;20078;-47
2022/12/23 09:37:44;;;;;;;5.78;1.10;;;;;;;16.79;64.91;98697.56;5092040;28;20040;-47
2022/12/23 09:40:12;;;;;;;2.13;0.93;;;;;;;16.75;64.90;98685.81;5090740;28;20444;-47
2022/12/23 09:43:04;;;;;;;9.07;2.13;;;;;;;16.77;68.16;98691.69;5090676;28;20394;-47
2022/12/23 09:46:00;;;;;;;2.45;1.10;;;;;;;16.84;68.42;98689.72;5091780;28;20078;-46
2022/12/23 09:48:31;;;;;;;1.60;0.90;;;;;;;16.94;66.89;98681.94;5091989;28;20107;-47
2022/12/23 09:50:58;;;;;;;4.53;1.02;;;;;;;16.92;67.54;98694.63;5091954;28;20028;-46
2022/12/23 09:53:35;;;;;;;2.95;1.38;;;;;;;16.89;67.29;98676.53;5091833;28;20051;-46
2022/12/23 09:56:14;;;;;;;3.63;1.55;;;;;;;16.89;66.71;98689.00;5091933;28;20031;-46
2022/12/23 09:58:45;;;;;;;4.00;1.42;;;;;;;16.88;66.27;98671.47;5092431;28;20036;-47
2022/12/23 10:01:55;;;;;;;6.03;2.30;;;;;;;16.86;68.20;98671.75;5091919;28;20024;-46
2022/12/23 10:04:47;;;;;;;3.90;1.38;;;;;;;16.95;65.75;98694.13;5091889;28;20024;-47
2022/12/23 10:07:28;;;;;;;4.63;2.38;;;;;;;16.84;65.06;98673.81;5091782;28;20024;-46
2022/12/23 10:09:57;;;;;;;3.45;1.52;;;;;;;16.79;65.64;98692.25;5091722;28;20111;-47
2022/12/23 10:12:39;;;;;;;4.68;1.38;;;;;;;16.83;64.72;98695.25;5091596;28;20093;-46
2022/12/23 10:15:40;;;;;;;4.35;1.30;;;;;;;16.88;63.94;98690.03;5090420;28;20119;-47
2022/12/23 10:18:39;;;;;;;2.85;1.30;;;;;;;16.81;66.14;98687.53;5091260;28;20047;-47
2022/12/23 10:21:20;;;;;;;4.03;1.27;;;;;;;16.75;64.79;98691.94;5090375;28;20493;-47
2022/12/23 10:23:51;;;;;;;3.65;1.40;;;;;;;16.69;65.97;98700.84;5091387;28;20070;-47
2022/12/23 10:26:28;;;;;;;3.25;1.17;;;;;;;16.81;66.28;98710.56;5091544;28;20078;-46
2022/12/23 10:29:19;;;;;;;4.30;1.17;;;;;;;16.99;64.88;98696.31;5091649;28;20040;-47
2022/12/23 10:32:16;;;;;;;6.65;2.25;;;;;;;17.04;64.48;98701.69;5091389;28;20024;-47
2022/12/23 10:35:07;;;;;;;3.28;1.35;;;;;;;16.93;63.95;98714.78;5091556;28;20043;-46
2022/12/23 10:37:57;;;;;;;4.32;1.48;;;;;;;16.93;65.43;98701.53;5091479;28;20025;-46
2022/12/23 10:40:50;;;;;;;6.93;2.65;;;;;;;16.88;64.85;98701.47;5091466;28;20571;-47
2022/12/23 10:43:56;;;;;;;4.45;1.45;;;;;;;16.83;65.38;98680.16;5090156;28;20435;-46
2022/12/23 10:46:41;;;;;;;3.63;1.57;;;;;;;16.81;64.01;98655.75;5091334;28;20020;-46
2022/12/23 10:49:25;;;;;;;3.00;1.35;;;;;;;16.80;64.24;98677.16;5091473;28;20424;-47
2022/12/23 10:51:56;;;;;;;4.75;1.50;;;;;;;16.76;65.24;98690.06;5090017;28;20040;-47
2022/12/23 10:54:32;;;;;;;4.78;1.40;;;;;;;16.78;65.39;98683.50;5091246;28;20107;-47
2022/12/23 10:56:58;;;;;;;6.30;1.65;;;;;;;16.91;65.32;98698.31;5094936;28;20566;-47
2022/12/23 10:59:29;;;;;;;3.85;1.50;;;;;;;17.01;65.57;98688.91;5094988;28;20028;-47
2022/12/23 11:02:10;;;;;;;2.33;1.15;;;;;;;17.06;64.29;98687.13;5076683;28;20028;-46
2022/12/23 11:04:41;;;;;;;2.53;1.30;;;;;;;17.04;64.47;98685.75;5095090;28;20063;-47
2022/12/23 11:07:10;;;;;;;7.95;1.85;;;;;;;17.05;64.49;98692.69;5094806;28;20024;-47
2022/12/23 11:09:49;;;;;;;3.83;1.27;;;;;;;16.97;64.28;98710.59;5093693;28;20035;-47
2022/12/23 11:12:20;;;;;;;4.28;1.90;;;;;;;16.91;64.77;98705.47;5094674;28;20024;-47
2022/12/23 11:14:53;;;;;;;6.28;1.67;;;;;;;16.94;64.21;98699.66;5094657;28;20032;-46
2022/12/23 11:17:32;;;;;;;2.78;1.35;;;;;;;17.01;64.17;98713.56;5094531;28;20017;-47
2022/12/23 11:20:09;;;;;;;5.50;1.67;;;;;;;17.09;63.86;98713.16;5094580;28;20020;-47
2022/12/23 11:22:45;;;;;;;4.20;1.50;;;;;;;17.10;63.60;98708.66;5094544;28;20028;-47
2022/12/23 11:25:29;;;;;;;9.18;1.80;;;;;;;17.10;62.98;98712.13;5093042;28;20040;-47
2022/12/23 11:27:59;;;;;;;5.47;1.98;;;;;;;17.08;64.39;98698.31;5093184;28;20051;-47
2022/12/23 11:30:27;;;;;;;8.68;2.15;;;;;;;17.05;64.59;98711.25;5094252;28;20024;-47
2022/12/23 11:32:53;;;;;;;4.50;1.75;;;;;;;17.12;63.60;98722.47;5094212;28;20110;-46
2022/12/23 11:35:28;;;;;;;6.60;2.90;;;;;;;17.11;64.54;98720.88;5094271;28;20454;-46
2022/12/23 11:37:55;;;;;;;10.13;4.30;;;;;;;17.09;64.05;98729.06;5092919;28;20039;-46
2022/12/23 11:40:25;;;;;;;8.65;4.25;;;;;;;17.00;63.75;98709.31;5094179;28;20020;-46
2022/12/23 11:43:00;;;;;;;8.48;2.63;;;;;;;16.99;64.45;98701.63;5094394;28;20051;-47
2022/12/23 11:45:29;;;;;;;8.43;3.53;;;;;;;17.03;63.90;98723.94;5094038;28;20040;-47
2022/12/23 11:47:55;;;;;;;6.47;2.70;;;;;;;16.96;63.86;98713.47;5093990;28;20028;-46
2022/12/23 11:50:27;;;;;;;7.05;2.80;;;;;;;16.89;64.39;98713.66;5093927;28;20020;-47
2022/12/23 11:53:20;;;;;;;9.13;3.75;;;;;;;16.92;64.93;98715.84;5093790;28;20511;-46
2022/12/23 11:55:58;;;;;;;10.50;4.82;;;;;;;17.06;65.29;98713.63;5082349;28;20367;-47
2022/12/23 11:58:25;;;;;;;5.22;2.97;;;;;;;17.13;64.82;98701.03;5092563;28;20064;-46
2022/12/23 12:00:57;;;;;;;5.18;2.58;;;;;;;17.21;64.06;98709.63;5093718;28;20069;-47
2022/12/23 12:03:29;;;;;;;4.90;2.08;;;;;;;17.21;63.99;98697.16;5093694;28;20039;-47
2022/12/23 12:06:01;;;;;;;10.50;5.43;;;;;;;17.10;64.37;98713.97;5093597;28;20099;-47
2022/12/23 12:08:31;;;;;;;6.88;2.85;;;;;;;17.06;64.86;98728.75;5091836;28;20391;-47
2022/12/23 12:11:15;;;;;;;5.30;2.08;;;;;;;17.13;65.76;98724.91;5092234;28;20027;-47
2022/12/23 12:13:44;;;;;;;5.78;2.00;;;;;;;17.32;66.27;98744.00;5093532;28;20131;-47